ADDS METAR Data INFO
IDs: Format: Raw Decoded Include TAF

Data at: 0152 UTC 17 Oct 2017

KO69 170135Z AUTO 00000KT 9SM BKN040 OVC048 21/04 A3004 RMK A01
KO69 170115Z AUTO 00000KT 9SM BKN049 23/03 A3003 RMK A01
KO69 170055Z AUTO 00000KT 9SM FEW025 25/02 A3003 RMK A01
KO69 170035Z AUTO 00000KT 10SM CLR 26/03 A3004 RMK A01
KO69 170015Z AUTO 00000G11KT 8SM CLR 26/00 A3004 RMK A01
KO69 162355Z AUTO 00000KT 9SM CLR 27/00 A3004 RMK A01
KO69 162335Z AUTO 15003KT 8SM CLR 28/M00 A3005 RMK A01
KO69 162315Z AUTO 16004KT 9SM 28/M01 A3006 RMK A01
KO69 162255Z AUTO 9SM RMK A01
KO69 162235Z AUTO VRB03KT 9SM 28/M01 A3006 RMK A01
KO69 162155Z AUTO VRB04KT 7SM 27/01 A3007 RMK A01
KO69 162135Z AUTO 00000KT 5SM HZ 27/04 A3007 RMK A01
KO69 162115Z AUTO VRB03KT 7SM 27/01 A3008 RMK A01
KO69 162055Z AUTO 16005KT 4SM HZ 27/01 A3009 RMK A01
KO69 162035Z AUTO 15004KT 3SM HZ 26/01 A3011 RMK A01
KO69 162015Z AUTO 16005KT 8SM 26/01 A3011 RMK A01
KO69 161955Z AUTO 00000KT 6SM HZ 25/01 A3012 RMK A01
KO69 161935Z AUTO 00000KT 6SM HZ 24/03 A3013 RMK A01
KO69 161915Z AUTO 00000KT 6SM HZ 23/01 A3014 RMK A01
KO69 161855Z AUTO 00000KT 3SM HZ 23/01 A3015 RMK A01
KO69 161835Z AUTO VRB04KT 5SM HZ 22/01 A3016 RMK A01
KO69 161815Z AUTO 6SM HZ 20/03 A3016 RMK A01
KO69 161755Z AUTO 00000KT 6SM HZ 19/03 A3017 RMK A01
KO69 161735Z AUTO 00000KT 17/02 A3018 RMK A01
KO69 161715Z AUTO A3018 RMK A01
KO69 161655Z AUTO 00000KT 5SM HZ 14/04 A3018 RMK A01
KO69 161635Z AUTO VRB04G14KT 5SM HZ 12/04 A3018 RMK A01
KO69 161615Z AUTO 00000KT 6SM HZ 10/05 A3017 RMK A01
KO69 161555Z AUTO 00000KT 6SM HZ 09/04 A3017 RMK A01
KO69 161535Z AUTO 00000KT 5SM HZ 08/04 A3016 RMK A01
KO69 161515Z AUTO 00000KT 6SM HZ 07/03 A3016 RMK A01
KO69 161455Z AUTO 00000KT 5SM HZ FEW024 06/02 A3015 RMK A01
KO69 161435Z AUTO 00000KT 6SM HZ 05/02 A3015 RMK A01
KO69 161415Z AUTO 00000KT 8SM 06/02 A3015 RMK A01
KO69 161355Z AUTO 00000KT 8SM FEW015 OVC024 05/02 A3015 RMK A01
KO69 161335Z AUTO 00000KT 8SM 06/02 A3014 RMK A01
KO69 161315Z AUTO 00000KT 8SM 06/02 A3014 RMK A01
KO69 161255Z AUTO 00000KT 7SM OVC023 07/02 A3014 RMK A01
KO69 161235Z AUTO 00000KT 8SM OVC023 06/02 A3013 RMK A01
KO69 161215Z AUTO 00000KT 7SM FEW015 OVC023 05/02 A3013 RMK A01
KO69 161155Z AUTO 00000KT 7SM FEW015 OVC024 06/03 A3013 RMK A01
KO69 161135Z AUTO 00000KT 7SM OVC022 07/02 A3013 RMK A01
KO69 161115Z AUTO 00000KT 7SM OVC024 07/03 A3012 RMK A01
KO69 161055Z AUTO 00000KT 7SM OVC024 07/04 A3013 RMK A01
KO69 161035Z AUTO 00000KT 7SM OVC024 07/02 A3013 RMK A01
KO69 161015Z AUTO 00000KT 7SM OVC024 08/02 A3013 RMK A01
KO69 160955Z AUTO 00000KT 7SM OVC023 07/04 A3014 RMK A01
KO69 160935Z AUTO 00000KT 7SM OVC023 08/03 A3014 RMK A01
KO69 160915Z AUTO 00000KT 7SM OVC022 08/03 A3014 RMK A01
KO69 160855Z AUTO 00000KT 7SM OVC020 09/03 A3013 RMK A01
KO69 160835Z AUTO 00000KT 7SM OVC020 09/03 A3013 RMK A01
KO69 160815Z AUTO 00000KT 7SM OVC019 10/04 A3013 RMK A01
KO69 160755Z AUTO 00000KT 7SM OVC019 09/04 A3013 RMK A01
KO69 160735Z AUTO 00000KT 7SM OVC018 09/04 A3013 RMK A01
KO69 160715Z AUTO 00000KT 5SM HZ OVC018 09/05 A3013 RMK A01
KO69 160655Z AUTO 00000KT 8SM OVC019 11/04 A3013 RMK A01
KO69 160635Z AUTO 00000KT 6SM HZ OVC018 10/04 A3013 RMK A01
KO69 160615Z AUTO 00000KT 6SM HZ OVC018 10/04 A3013 RMK A01
KO69 160555Z AUTO 00000KT 7SM OVC018 11/02 A3013 RMK A01
KO69 160535Z AUTO 00000KT 10SM OVC018 12/03 A3013 RMK A01
KO69 160515Z AUTO 00000KT 10SM OVC018 12/04 A3013 RMK A01
KO69 160455Z AUTO 00000KT 10SM OVC018 12/05 A3012 RMK A01
KO69 160435Z AUTO 00000KT 10SM OVC018 13/04 A3012 RMK A01
KO69 160415Z AUTO 00000KT 10SM OVC017 13/04 A3012 RMK A01
KO69 160355Z AUTO 00000KT 10SM OVC016 13/02 A3011 RMK A01
KO69 160335Z AUTO 00000KT 10SM SCT017 SCT036 BKN044 14/02 A3011 RMK A01
KO69 160315Z AUTO 00000KT 10SM FEW017 SCT043 BKN050 16/02 A3011 RMK A01
KO69 160255Z AUTO 06003KT 10SM 16/02 A3010 RMK A01
KO69 160235Z AUTO 9SM RMK A01
KO69 160215Z AUTO 07003KT 10SM CLR 17/03 A3009 RMK A01
KO69 160155Z AUTO 00000KT 10SM CLR 19/03 A3009 RMK A01
KO69 160135Z AUTO 12003KT 9SM CLR 22/04 A3009 RMK A01
KO69 160115Z AUTO 10004KT 9SM CLR 23/04 A3008 RMK A01
KO69 160055Z AUTO VRB04KT 9SM CLR 25/02 A3008 RMK A01
KO69 160035Z AUTO 15006KT 10SM 25/01 A3008 RMK A01
KO69 160015Z AUTO 15007KT 10SM CLR 26/00 A3008 RMK A01
KO69 152355Z AUTO 16006G11KT 9SM 26/01 A3009 RMK A01
KO69 152335Z AUTO 15009KT 9SM CLR 27/00 A3009 RMK A01
KO69 152315Z AUTO 15011KT 10SM CLR 27/M00 A3009 RMK A01
KO69 152255Z AUTO 15009KT 9SM CLR 27/M01 A3009 RMK A01
KO69 152235Z AUTO 15010G15KT 9SM CLR 27/M01 A3009 RMK A01
KO69 152215Z AUTO 16010KT 9SM CLR 27/M01 A3009 RMK A01
KO69 152155Z AUTO 17010KT 10SM CLR 28/M00 A3009 RMK A01
KO69 152135Z AUTO 16011KT 10SM CLR 28/M00 A3009 RMK A01
KO69 152115Z AUTO 17012KT 10SM CLR 27/M00 A3010 RMK A01
KO69 152055Z AUTO 16010KT 9SM CLR 28/M00 A3011 RMK A01
KO69 152035Z AUTO 16009KT 10SM CLR 28/M01 A3011 RMK A01
KO69 152015Z AUTO VRB05G14KT 9SM CLR 28/M01 A3012 RMK A01
KO69 151955Z AUTO 11007G13KT 080V140 9SM CLR 27/M01 A3013 RMK A01
KO69 151935Z AUTO 16013KT 120V180 9SM CLR 25/M00 A3013 RMK A01
KO69 151915Z AUTO 15012KT 9SM CLR 25/M00 A3014 RMK A01
KO69 151855Z AUTO 15010KT 9SM CLR 24/00 A3014 RMK A01
KO69 151835Z AUTO 15008G13KT 9SM FEW013 23/01 A3014 RMK A01
KO69 151815Z AUTO 16008KT 10SM FEW013 22/02 A3015 RMK A01
KO69 151755Z AUTO 15010KT 9SM CLR 20/01 A3015 RMK A01
KO69 151735Z AUTO 16009KT 10SM CLR 19/01 A3015 RMK A01
KO69 151715Z AUTO 15007KT 9SM CLR 18/02 A3015 RMK A01
KO69 151655Z AUTO 14007KT 9SM CLR 17/02 A3015 RMK A01
KO69 151635Z AUTO 14006KT 8SM 16/03 A3014 RMK A01
KO69 151615Z AUTO 000KT 9SM CLR 13/04 A3014 RMK A01
KO69 151555Z AUTO 00000KT 8SM CLR 11/05 A3014 RMK A01
KO69 151535Z AUTO 00000KT 8SM CLR 09/04 A3014 RMK A01
KO69 151515Z AUTO 00000KT 8SM 07/04 A3013 RMK A01
KO69 151455Z AUTO 00000KT 8SM 06/02 A3013 RMK A01
KO69 151435Z AUTO 00000KT 8SM CLR 04/01 A3013 RMK A01
KO69 151415Z AUTO 00000KT 10SM FEW034 FEW044 SCT049 05/02 A3012 RMK A01
KO69 151355Z AUTO 00000KT 10SM FEW035 BKN046 05/02 A3012 RMK A01